sensor_id;sensor_type;location;lat;lon;timestamp;pressure;altitude;pressure_sealevel;temperature
74750;BMP280;63269;53.330;-6.288;2023-04-24T00:00:39;100641.16;;;21.34
74750;BMP280;63269;53.330;-6.288;2023-04-24T00:03:06;100640.41;;;21.33
74750;BMP280;63269;53.330;-6.288;2023-04-24T00:05:32;100642.34;;;21.33
74750;BMP280;63269;53.330;-6.288;2023-04-24T00:07:58;100642.34;;;21.33
74750;BMP280;63269;53.330;-6.288;2023-04-24T00:10:23;100640.41;;;21.33
74750;BMP280;63269;53.330;-6.288;2023-04-24T00:12:49;100638.50;;;21.34
74750;BMP280;63269;53.330;-6.288;2023-04-24T00:15:14;100642.63;;;21.35
74750;BMP280;63269;53.330;-6.288;2023-04-24T00:17:40;100633.88;;;21.34
74750;BMP280;63269;53.330;-6.288;2023-04-24T00:20:05;100639.97;;;21.35
74750;BMP280;63269;53.330;-6.288;2023-04-24T00:22:32;100639.22;;;21.34
74750;BMP280;63269;53.330;-6.288;2023-04-24T00:24:57;100641.16;;;21.34
74750;BMP280;63269;53.330;-6.288;2023-04-24T00:27:23;100634.78;;;21.31
74750;BMP280;63269;53.330;-6.288;2023-04-24T00:29:49;100636.69;;;21.31
74750;BMP280;63269;53.330;-6.288;2023-04-24T00:32:14;100630.59;;;21.30
74750;BMP280;63269;53.330;-6.288;2023-04-24T00:34:40;100639.06;;;21.29
74750;BMP280;63269;53.330;-6.288;2023-04-24T00:37:06;100641.75;;;21.29
74750;BMP280;63269;53.330;-6.288;2023-04-24T00:39:32;100636.06;;;21.27
74750;BMP280;63269;53.330;-6.288;2023-04-24T00:41:57;100635.34;;;21.26
74750;BMP280;63269;53.330;-6.288;2023-04-24T00:44:24;100629.25;;;21.26
74750;BMP280;63269;53.330;-6.288;2023-04-24T00:46:50;100635.06;;;21.24
74750;BMP280;63269;53.330;-6.288;2023-04-24T00:49:22;100635.06;;;21.24
74750;BMP280;63269;53.330;-6.288;2023-04-24T00:51:48;100635.47;;;21.23
74750;BMP280;63269;53.330;-6.288;2023-04-24T00:54:14;100635.47;;;21.23
74750;BMP280;63269;53.330;-6.288;2023-04-24T00:56:41;100629.09;;;21.20
74750;BMP280;63269;53.330;-6.288;2023-04-24T00:59:07;100627.88;;;21.21
74750;BMP280;63269;53.330;-6.288;2023-04-24T01:01:33;100627.88;;;21.21
74750;BMP280;63269;53.330;-6.288;2023-04-24T01:03:59;100631.91;;;21.16
74750;BMP280;63269;53.330;-6.288;2023-04-24T01:06:27;100625.06;;;21.15
74750;BMP280;63269;53.330;-6.288;2023-04-24T01:08:54;100627.00;;;21.15
74750;BMP280;63269;53.330;-6.288;2023-04-24T01:11:21;100631.59;;;21.14
74750;BMP280;63269;53.330;-6.288;2023-04-24T01:13:47;100631.28;;;21.12
74750;BMP280;63269;53.330;-6.288;2023-04-24T01:16:16;100633.22;;;21.12
74750;BMP280;63269;53.330;-6.288;2023-04-24T01:18:43;100637.03;;;21.11
74750;BMP280;63269;53.330;-6.288;2023-04-24T01:21:09;100637.03;;;21.11
74750;BMP280;63269;53.330;-6.288;2023-04-24T01:23:35;100629.47;;;21.09
74750;BMP280;63269;53.330;-6.288;2023-04-24T01:26:01;100643.25;;;21.08
74750;BMP280;63269;53.330;-6.288;2023-04-24T01:28:26;100646.78;;;21.05
74750;BMP280;63269;53.330;-6.288;2023-04-24T01:30:52;100646.78;;;21.05
74750;BMP280;63269;53.330;-6.288;2023-04-24T01:33:20;100651.81;;;21.03
74750;BMP280;63269;53.330;-6.288;2023-04-24T01:35:46;100651.81;;;21.03
74750;BMP280;63269;53.330;-6.288;2023-04-24T01:38:11;100654.91;;;21.01
74750;BMP280;63269;53.330;-6.288;2023-04-24T01:40:37;100654.91;;;21.01
74750;BMP280;63269;53.330;-6.288;2023-04-24T01:43:03;100653.13;;;20.98
74750;BMP280;63269;53.330;-6.288;2023-04-24T01:45:28;100657.72;;;20.97
74750;BMP280;63269;53.330;-6.288;2023-04-24T01:47:54;100646.28;;;20.97
74750;BMP280;63269;53.330;-6.288;2023-04-24T01:50:19;100646.28;;;20.97
74750;BMP280;63269;53.330;-6.288;2023-04-24T01:52:45;100649.81;;;20.94
74750;BMP280;63269;53.330;-6.288;2023-04-24T01:55:10;100651.75;;;20.93
74750;BMP280;63269;53.330;-6.288;2023-04-24T01:57:36;100652.91;;;20.92
74750;BMP280;63269;53.330;-6.288;2023-04-24T02:00:02;100652.91;;;20.92
74750;BMP280;63269;53.330;-6.288;2023-04-24T02:02:29;100655.31;;;20.90
74750;BMP280;63269;53.330;-6.288;2023-04-24T02:04:56;100659.13;;;20.89
74750;BMP280;63269;53.330;-6.288;2023-04-24T02:07:21;100659.13;;;20.89
74750;BMP280;63269;53.330;-6.288;2023-04-24T02:09:47;100654.97;;;20.88
74750;BMP280;63269;53.330;-6.288;2023-04-24T02:12:12;100664.19;;;20.87
74750;BMP280;63269;53.330;-6.288;2023-04-24T02:14:38;100664.19;;;20.87
74750;BMP280;63269;53.330;-6.288;2023-04-24T02:17:03;100665.78;;;20.85
74750;BMP280;63269;53.330;-6.288;2023-04-24T02:19:30;100673.78;;;20.85
74750;BMP280;63269;53.330;-6.288;2023-04-24T02:21:55;100673.78;;;20.85
74750;BMP280;63269;53.330;-6.288;2023-04-24T02:24:21;100668.88;;;20.83
74750;BMP280;63269;53.330;-6.288;2023-04-24T02:26:46;100664.00;;;20.82
74750;BMP280;63269;53.330;-6.288;2023-04-24T02:29:11;100664.00;;;20.82
74750;BMP280;63269;53.330;-6.288;2023-04-24T02:31:37;100663.66;;;20.79
74750;BMP280;63269;53.330;-6.288;2023-04-24T02:34:02;100671.66;;;20.79
74750;BMP280;63269;53.330;-6.288;2023-04-24T02:36:28;100670.16;;;20.78
74750;BMP280;63269;53.330;-6.288;2023-04-24T02:38:53;100670.16;;;20.78
74750;BMP280;63269;53.330;-6.288;2023-04-24T02:41:18;100675.94;;;20.77
74750;BMP280;63269;53.330;-6.288;2023-04-24T02:43:44;100676.34;;;20.75
74750;BMP280;63269;53.330;-6.288;2023-04-24T02:46:10;100684.34;;;20.75
74750;BMP280;63269;53.330;-6.288;2023-04-24T02:48:36;100684.34;;;20.75
74750;BMP280;63269;53.330;-6.288;2023-04-24T02:51:01;100672.63;;;20.73
74750;BMP280;63269;53.330;-6.288;2023-04-24T02:53:27;100685.22;;;20.72
74750;BMP280;63269;53.330;-6.288;2023-04-24T02:55:52;100686.38;;;20.71
74750;BMP280;63269;53.330;-6.288;2023-04-24T02:58:18;100682.97;;;20.71
74750;BMP280;63269;53.330;-6.288;2023-04-24T03:00:45;100682.97;;;20.71
74750;BMP280;63269;53.330;-6.288;2023-04-24T03:03:11;100675.88;;;20.68
74750;BMP280;63269;53.330;-6.288;2023-04-24T03:05:36;100681.19;;;20.68
74750;BMP280;63269;53.330;-6.288;2023-04-24T03:08:02;100681.19;;;20.68
74750;BMP280;63269;53.330;-6.288;2023-04-24T03:10:27;100686.53;;;20.68
74750;BMP280;63269;53.330;-6.288;2023-04-24T03:12:52;100681.63;;;20.66
74750;BMP280;63269;53.330;-6.288;2023-04-24T03:15:20;100681.63;;;20.66
74750;BMP280;63269;53.330;-6.288;2023-04-24T03:17:45;100687.41;;;20.65
74750;BMP280;63269;53.330;-6.288;2023-04-24T03:20:10;100686.63;;;20.64
74750;BMP280;63269;53.330;-6.288;2023-04-24T03:22:36;100683.97;;;20.64
74750;BMP280;63269;53.330;-6.288;2023-04-24T03:25:02;100683.22;;;20.64
74750;BMP280;63269;53.330;-6.288;2023-04-24T03:27:27;100688.56;;;20.64
74750;BMP280;63269;53.330;-6.288;2023-04-24T03:29:52;100683.66;;;20.62
74750;BMP280;63269;53.330;-6.288;2023-04-24T03:32:21;100683.66;;;20.62
74750;BMP280;63269;53.330;-6.288;2023-04-24T03:34:50;100679.06;;;20.63
74750;BMP280;63269;53.330;-6.288;2023-04-24T03:37:16;100681.72;;;20.63
74750;BMP280;63269;53.330;-6.288;2023-04-24T03:39:42;100681.72;;;20.63
74750;BMP280;63269;53.330;-6.288;2023-04-24T03:42:08;100678.31;;;20.62
74750;BMP280;63269;53.330;-6.288;2023-04-24T03:44:34;100678.31;;;20.62
74750;BMP280;63269;53.330;-6.288;2023-04-24T03:47:00;100683.66;;;20.62
74750;BMP280;63269;53.330;-6.288;2023-04-24T03:49:25;100673.44;;;20.61
74750;BMP280;63269;53.330;-6.288;2023-04-24T03:51:51;100673.44;;;20.61
74750;BMP280;63269;53.330;-6.288;2023-04-24T03:54:17;100676.13;;;20.61
74750;BMP280;63269;53.330;-6.288;2023-04-24T03:56:43;100676.13;;;20.61
74750;BMP280;63269;53.330;-6.288;2023-04-24T03:59:08;100673.88;;;20.59
74750;BMP280;63269;53.330;-6.288;2023-04-24T04:01:34;100673.88;;;20.59
74750;BMP280;63269;53.330;-6.288;2023-04-24T04:04:03;100677.69;;;20.58
74750;BMP280;63269;53.330;-6.288;2023-04-24T04:06:28;100677.69;;;20.58
74750;BMP280;63269;53.330;-6.288;2023-04-24T04:08:56;100688.34;;;20.58
74750;BMP280;63269;53.330;-6.288;2023-04-24T04:11:22;100688.34;;;20.58
74750;BMP280;63269;53.330;-6.288;2023-04-24T04:13:47;100681.56;;;20.57
74750;BMP280;63269;53.330;-6.288;2023-04-24T04:16:13;100681.56;;;20.57
74750;BMP280;63269;53.330;-6.288;2023-04-24T04:18:39;100678.88;;;20.57
74750;BMP280;63269;53.330;-6.288;2023-04-24T04:21:04;100678.88;;;20.57
74750;BMP280;63269;53.330;-6.288;2023-04-24T04:23:30;100687.31;;;20.55
74750;BMP280;63269;53.330;-6.288;2023-04-24T04:25:55;100682.41;;;20.54
74750;BMP280;63269;53.330;-6.288;2023-04-24T04:28:20;100683.91;;;20.55
74750;BMP280;63269;53.330;-6.288;2023-04-24T04:30:46;100686.56;;;20.55
74750;BMP280;63269;53.330;-6.288;2023-04-24T04:33:12;100683.13;;;20.54
74750;BMP280;63269;53.330;-6.288;2023-04-24T04:35:38;100683.13;;;20.54
74750;BMP280;63269;53.330;-6.288;2023-04-24T04:38:03;100693.06;;;20.54
74750;BMP280;63269;53.330;-6.288;2023-04-24T04:40:30;100693.06;;;20.54
74750;BMP280;63269;53.330;-6.288;2023-04-24T04:42:55;100688.91;;;20.53
74750;BMP280;63269;53.330;-6.288;2023-04-24T04:45:21;100704.91;;;20.53
74750;BMP280;63269;53.330;-6.288;2023-04-24T04:47:47;100706.09;;;20.52
74750;BMP280;63269;53.330;-6.288;2023-04-24T04:50:12;100706.09;;;20.52
74750;BMP280;63269;53.330;-6.288;2023-04-24T04:52:38;100713.31;;;20.51
74750;BMP280;63269;53.330;-6.288;2023-04-24T04:55:04;100719.81;;;20.50
74750;BMP280;63269;53.330;-6.288;2023-04-24T04:57:30;100733.91;;;20.51
74750;BMP280;63269;53.330;-6.288;2023-04-24T04:59:56;100735.81;;;20.50
74750;BMP280;63269;53.330;-6.288;2023-04-24T05:02:21;100743.06;;;20.50
74750;BMP280;63269;53.330;-6.288;2023-04-24T05:04:46;100754.44;;;20.50
74750;BMP280;63269;53.330;-6.288;2023-04-24T05:07:12;100754.44;;;20.50
74750;BMP280;63269;53.330;-6.288;2023-04-24T05:09:38;100756.38;;;20.50
74750;BMP280;63269;53.330;-6.288;2023-04-24T05:12:03;100756.38;;;20.50
74750;BMP280;63269;53.330;-6.288;2023-04-24T05:14:29;100756.38;;;20.50
74750;BMP280;63269;53.330;-6.288;2023-04-24T05:16:54;100747.31;;;20.47
74750;BMP280;63269;53.330;-6.288;2023-04-24T05:19:19;100755.31;;;20.47
74750;BMP280;63269;53.330;-6.288;2023-04-24T05:21:45;100764.09;;;20.48
74750;BMP280;63269;53.330;-6.288;2023-04-24T05:24:11;100765.25;;;20.47
74750;BMP280;63269;53.330;-6.288;2023-04-24T05:26:36;100765.25;;;20.47
74750;BMP280;63269;53.330;-6.288;2023-04-24T05:29:02;100766.41;;;20.46
74750;BMP280;63269;53.330;-6.288;2023-04-24T05:31:27;100772.88;;;20.45
74750;BMP280;63269;53.330;-6.288;2023-04-24T05:33:53;100776.31;;;20.45
74750;BMP280;63269;53.330;-6.288;2023-04-24T05:36:18;100776.31;;;20.45
74750;BMP280;63269;53.330;-6.288;2023-04-24T05:38:44;100782.84;;;20.44
74750;BMP280;63269;53.330;-6.288;2023-04-24T05:41:09;100793.50;;;20.44
74750;BMP280;63269;53.330;-6.288;2023-04-24T05:43:35;100793.50;;;20.44
74750;BMP280;63269;53.330;-6.288;2023-04-24T05:46:00;100799.25;;;20.43
74750;BMP280;63269;53.330;-6.288;2023-04-24T05:48:25;100806.50;;;20.42
74750;BMP280;63269;53.330;-6.288;2023-04-24T05:50:51;100811.50;;;20.40
74750;BMP280;63269;53.330;-6.288;2023-04-24T05:53:18;100811.50;;;20.40
74750;BMP280;63269;53.330;-6.288;2023-04-24T05:55:43;100827.50;;;20.40
74750;BMP280;63269;53.330;-6.288;2023-04-24T05:58:09;100835.47;;;20.40
74750;BMP280;63269;53.330;-6.288;2023-04-24T06:00:35;100835.47;;;20.40
74750;BMP280;63269;53.330;-6.288;2023-04-24T06:03:00;100827.91;;;20.38
74750;BMP280;63269;53.330;-6.288;2023-04-24T06:05:26;100842.38;;;20.37
74750;BMP280;63269;53.330;-6.288;2023-04-24T06:07:51;100845.47;;;20.36
74750;BMP280;63269;53.330;-6.288;2023-04-24T06:10:17;100851.47;;;20.40
74750;BMP280;63269;53.330;-6.288;2023-04-24T06:12:42;100851.47;;;20.40
74750;BMP280;63269;53.330;-6.288;2023-04-24T06:15:08;100842.75;;;20.40
74750;BMP280;63269;53.330;-6.288;2023-04-24T06:17:33;100851.38;;;20.44
74750;BMP280;63269;53.330;-6.288;2023-04-24T06:19:59;100869.81;;;20.51
74750;BMP280;63269;53.330;-6.288;2023-04-24T06:22:24;100869.69;;;20.54
74750;BMP280;63269;53.330;-6.288;2023-04-24T06:24:50;100869.56;;;20.58
74750;BMP280;63269;53.330;-6.288;2023-04-24T06:27:15;100869.56;;;20.58
74750;BMP280;63269;53.330;-6.288;2023-04-24T06:29:41;100877.16;;;20.59
74750;BMP280;63269;53.330;-6.288;2023-04-24T06:32:06;100880.47;;;20.64
74750;BMP280;63269;53.330;-6.288;2023-04-24T06:34:31;100884.19;;;20.66
74750;BMP280;63269;53.330;-6.288;2023-04-24T06:36:59;100886.75;;;20.70
74750;BMP280;63269;53.330;-6.288;2023-04-24T06:39:25;100885.88;;;20.73
74750;BMP280;63269;53.330;-6.288;2023-04-24T06:41:50;100887.72;;;20.76
74750;BMP280;63269;53.330;-6.288;2023-04-24T06:44:15;100896.44;;;20.76
74750;BMP280;63269;53.330;-6.288;2023-04-24T06:46:41;100914.88;;;20.84
74750;BMP280;63269;53.330;-6.288;2023-04-24T06:49:07;100914.88;;;20.84
74750;BMP280;63269;53.330;-6.288;2023-04-24T06:51:32;100911.06;;;20.85
74750;BMP280;63269;53.330;-6.288;2023-04-24T06:53:58;100914.03;;;20.87
74750;BMP280;63269;53.330;-6.288;2023-04-24T06:56:25;100917.03;;;20.89
74750;BMP280;63269;53.330;-6.288;2023-04-24T06:58:51;100916.47;;;20.94
74750;BMP280;63269;53.330;-6.288;2023-04-24T07:01:16;100927.47;;;20.96
74750;BMP280;63269;53.330;-6.288;2023-04-24T07:03:42;100937.69;;;20.97
74750;BMP280;63269;53.330;-6.288;2023-04-24T07:06:07;100933.88;;;20.98
74750;BMP280;63269;53.330;-6.288;2023-04-24T07:08:33;100935.34;;;20.99
74750;BMP280;63269;53.330;-6.288;2023-04-24T07:10:59;100948.59;;;21.03
74750;BMP280;63269;53.330;-6.288;2023-04-24T07:13:25;100944.75;;;21.04
74750;BMP280;63269;53.330;-6.288;2023-04-24T07:15:51;100942.81;;;21.05
74750;BMP280;63269;53.330;-6.288;2023-04-24T07:18:20;100942.81;;;21.05
74750;BMP280;63269;53.330;-6.288;2023-04-24T07:20:46;100954.84;;;21.09
74750;BMP280;63269;53.330;-6.288;2023-04-24T07:23:11;100952.19;;;21.09
74750;BMP280;63269;53.330;-6.288;2023-04-24T07:25:37;100952.19;;;21.09
74750;BMP280;63269;53.330;-6.288;2023-04-24T07:28:03;100955.19;;;21.11
74750;BMP280;63269;53.330;-6.288;2023-04-24T07:30:30;100954.31;;;21.14
74750;BMP280;63269;53.330;-6.288;2023-04-24T07:32:55;100957.31;;;21.16
74750;BMP280;63269;53.330;-6.288;2023-04-24T07:35:21;100960.31;;;21.18
74750;BMP280;63269;53.330;-6.288;2023-04-24T07:37:47;100967.88;;;21.20
74750;BMP280;63269;53.330;-6.288;2023-04-24T07:40:13;100968.16;;;21.22
74750;BMP280;63269;53.330;-6.288;2023-04-24T07:42:38;100972.34;;;21.23
74750;BMP280;63269;53.330;-6.288;2023-04-24T07:45:04;100973.09;;;21.24
74750;BMP280;63269;53.330;-6.288;2023-04-24T07:47:31;100973.09;;;21.24
74750;BMP280;63269;53.330;-6.288;2023-04-24T07:49:56;100976.06;;;21.26
74750;BMP280;63269;53.330;-6.288;2023-04-24T07:52:23;100978.31;;;21.27
74750;BMP280;63269;53.330;-6.288;2023-04-24T07:54:48;100988.56;;;21.29
74750;BMP280;63269;53.330;-6.288;2023-04-24T07:57:15;100999.25;;;21.29
74750;BMP280;63269;53.330;-6.288;2023-04-24T07:59:41;100998.78;;;21.30
74750;BMP280;63269;53.330;-6.288;2023-04-24T08:02:06;101005.63;;;21.31
74750;BMP280;63269;53.330;-6.288;2023-04-24T08:04:32;100999.13;;;21.32
74750;BMP280;63269;53.330;-6.288;2023-04-24T08:06:57;100998.69;;;21.34
74750;BMP280;63269;53.330;-6.288;2023-04-24T08:09:23;101000.16;;;21.35
74750;BMP280;63269;53.330;-6.288;2023-04-24T08:11:48;101002.09;;;21.34
74750;BMP280;63269;53.330;-6.288;2023-04-24T08:14:14;101006.28;;;21.35
74750;BMP280;63269;53.330;-6.288;2023-04-24T08:16:40;101009.69;;;21.36
74750;BMP280;63269;53.330;-6.288;2023-04-24T08:19:06;101008.19;;;21.35
74750;BMP280;63269;53.330;-6.288;2023-04-24T08:21:32;101015.44;;;21.34
74750;BMP280;63269;53.330;-6.288;2023-04-24T08:23:57;101015.88;;;21.33
74750;BMP280;63269;53.330;-6.288;2023-04-24T08:26:23;101008.31;;;21.31
74750;BMP280;63269;53.330;-6.288;2023-04-24T08:28:48;101012.13;;;21.30
74750;BMP280;63269;53.330;-6.288;2023-04-24T08:31:14;101021.75;;;21.28
74750;BMP280;63269;53.330;-6.288;2023-04-24T08:33:39;101013.00;;;21.27
74750;BMP280;63269;53.330;-6.288;2023-04-24T08:36:06;101013.00;;;21.27
74750;BMP280;63269;53.330;-6.288;2023-04-24T08:38:33;101014.63;;;21.25
74750;BMP280;63269;53.330;-6.288;2023-04-24T08:41:00;101021.13;;;21.24
74750;BMP280;63269;53.330;-6.288;2023-04-24T08:43:27;101024.97;;;21.23
74750;BMP280;63269;53.330;-6.288;2023-04-24T08:45:53;101025.34;;;21.21
74750;BMP280;63269;53.330;-6.288;2023-04-24T08:48:22;101025.34;;;21.21
74750;BMP280;63269;53.330;-6.288;2023-04-24T08:50:48;101023.56;;;21.18
74750;BMP280;63269;53.330;-6.288;2023-04-24T08:53:14;101032.00;;;21.16
74750;BMP280;63269;53.330;-6.288;2023-04-24T08:55:41;101032.00;;;21.16
74750;BMP280;63269;53.330;-6.288;2023-04-24T08:58:06;101037.44;;;21.13
74750;BMP280;63269;53.330;-6.288;2023-04-24T09:00:32;101033.72;;;21.10
74750;BMP280;63269;53.330;-6.288;2023-04-24T09:03:00;101031.91;;;21.07
74750;BMP280;63269;53.330;-6.288;2023-04-24T09:05:26;101040.66;;;21.08
74750;BMP280;63269;53.330;-6.288;2023-04-24T09:07:56;101047.56;;;21.05
74750;BMP280;63269;53.330;-6.288;2023-04-24T09:10:23;101051.09;;;21.02
74750;BMP280;63269;53.330;-6.288;2023-04-24T09:12:52;101051.09;;;21.02
74750;BMP280;63269;53.330;-6.288;2023-04-24T09:15:19;101050.44;;;20.98
74750;BMP280;63269;53.330;-6.288;2023-04-24T09:17:45;101056.75;;;20.91
74750;BMP280;63269;53.330;-6.288;2023-04-24T09:20:11;101066.22;;;20.92
74750;BMP280;63269;53.330;-6.288;2023-04-24T09:22:37;101068.16;;;20.92
74750;BMP280;63269;53.330;-6.288;2023-04-24T09:25:11;101065.47;;;20.92
74750;BMP280;63269;53.330;-6.288;2023-04-24T09:27:42;101065.47;;;20.92
74750;BMP280;63269;53.330;-6.288;2023-04-24T09:30:08;101070.91;;;20.88
74750;BMP280;63269;53.330;-6.288;2023-04-24T09:32:34;101076.25;;;20.88
74750;BMP280;63269;53.330;-6.288;2023-04-24T09:35:13;101076.25;;;20.88
74750;BMP280;63269;53.330;-6.288;2023-04-24T09:37:44;101080.84;;;20.88
74750;BMP280;63269;53.330;-6.288;2023-04-24T09:40:20;101080.94;;;20.84
74750;BMP280;63269;53.330;-6.288;2023-04-24T09:42:53;101082.84;;;20.84
74750;BMP280;63269;53.330;-6.288;2023-04-24T09:45:19;101081.78;;;20.81
74750;BMP280;63269;53.330;-6.288;2023-04-24T09:47:45;101081.78;;;20.81
74750;BMP280;63269;53.330;-6.288;2023-04-24T09:52:44;101095.53;;;20.79
74750;BMP280;63269;53.330;-6.288;2023-04-24T09:55:18;101100.88;;;20.79
74750;BMP280;63269;53.330;-6.288;2023-04-24T09:57:55;101091.38;;;20.78
74750;BMP280;63269;53.330;-6.288;2023-04-24T10:00:26;101098.31;;;20.76
74750;BMP280;63269;53.330;-6.288;2023-04-24T10:02:59;101098.31;;;20.76
74750;BMP280;63269;53.330;-6.288;2023-04-24T10:05:36;101097.53;;;20.75
74750;BMP280;63269;53.330;-6.288;2023-04-24T10:08:04;101100.22;;;20.75
74750;BMP280;63269;53.330;-6.288;2023-04-24T10:10:31;101106.41;;;20.72
74750;BMP280;63269;53.330;-6.288;2023-04-24T10:12:57;101112.16;;;20.71
74750;BMP280;63269;53.330;-6.288;2023-04-24T10:15:24;101110.22;;;20.71
74750;BMP280;63269;53.330;-6.288;2023-04-24T10:17:51;101110.22;;;20.71
74750;BMP280;63269;53.330;-6.288;2023-04-24T10:20:24;101115.25;;;20.69
74750;BMP280;63269;53.330;-6.288;2023-04-24T10:22:51;101107.66;;;20.68
74750;BMP280;63269;53.330;-6.288;2023-04-24T10:25:28;101111.50;;;20.67
74750;BMP280;63269;53.330;-6.288;2023-04-24T10:27:54;101114.91;;;20.67
74750;BMP280;63269;53.330;-6.288;2023-04-24T10:30:34;101120.22;;;20.67
74750;BMP280;63269;53.330;-6.288;2023-04-24T10:33:04;101121.41;;;20.66
74750;BMP280;63269;53.330;-6.288;2023-04-24T10:35:42;101117.25;;;20.65
74750;BMP280;63269;53.330;-6.288;2023-04-24T10:38:12;101129.50;;;20.63
74750;BMP280;63269;53.330;-6.288;2023-04-24T10:40:38;101129.50;;;20.63
74750;BMP280;63269;53.330;-6.288;2023-04-24T10:43:04;101133.34;;;20.62
74750;BMP280;63269;53.330;-6.288;2023-04-24T10:45:35;101140.16;;;20.63
74750;BMP280;63269;53.330;-6.288;2023-04-24T10:48:02;101140.16;;;20.63
74750;BMP280;63269;53.330;-6.288;2023-04-24T10:50:29;101145.19;;;20.61
74750;BMP280;63269;53.330;-6.288;2023-04-24T10:53:19;101144.41;;;20.60
74750;BMP280;63269;53.330;-6.288;2023-04-24T10:58:51;101161.25;;;20.57
74750;BMP280;63269;53.330;-6.288;2023-04-24T11:01:31;101162.00;;;20.57
74750;BMP280;63269;53.330;-6.288;2023-04-24T11:04:02;101162.00;;;20.57
74750;BMP280;63269;53.330;-6.288;2023-04-24T11:06:35;101165.09;;;20.56
74750;BMP280;63269;53.330;-6.288;2023-04-24T11:09:06;101169.66;;;20.55
74750;BMP280;63269;53.330;-6.288;2023-04-24T11:11:33;101169.66;;;20.55
74750;BMP280;63269;53.330;-6.288;2023-04-24T11:16:53;101163.25;;;20.53
74750;BMP280;63269;53.330;-6.288;2023-04-24T11:19:29;101165.94;;;20.53
74750;BMP280;63269;53.330;-6.288;2023-04-24T11:22:02;101180.44;;;20.52
74750;BMP280;63269;53.330;-6.288;2023-04-24T11:24:49;101180.06;;;20.50
74750;BMP280;63269;53.330;-6.288;2023-04-24T11:27:18;101183.91;;;20.49
74750;BMP280;63269;53.330;-6.288;2023-04-24T11:34:53;101196.50;;;20.48
74750;BMP280;63269;53.330;-6.288;2023-04-24T11:37:19;101194.25;;;20.47
74750;BMP280;63269;53.330;-6.288;2023-04-24T11:39:44;101204.16;;;20.46
74750;BMP280;63269;53.330;-6.288;2023-04-24T11:42:10;101204.16;;;20.46
74750;BMP280;63269;53.330;-6.288;2023-04-24T11:44:39;101197.31;;;20.45
74750;BMP280;63269;53.330;-6.288;2023-04-24T11:47:06;101205.31;;;20.45
74750;BMP280;63269;53.330;-6.288;2023-04-24T11:49:37;101205.31;;;20.45
74750;BMP280;63269;53.330;-6.288;2023-04-24T11:52:04;101204.56;;;20.45
74750;BMP280;63269;53.330;-6.288;2023-04-24T11:54:30;101197.00;;;20.43
74750;BMP280;63269;53.330;-6.288;2023-04-24T11:56:56;101198.50;;;20.44
74750;BMP280;63269;53.330;-6.288;2023-04-24T11:59:22;101207.22;;;20.45
74750;BMP280;63269;53.330;-6.288;2023-04-24T12:01:48;101207.22;;;20.45
74750;BMP280;63269;53.330;-6.288;2023-04-24T12:04:15;101215.22;;;20.45
74750;BMP280;63269;53.330;-6.288;2023-04-24T12:07:08;101209.16;;;20.44
74750;BMP280;63269;53.330;-6.288;2023-04-24T12:09:41;101209.16;;;20.44
74750;BMP280;63269;53.330;-6.288;2023-04-24T12:12:07;101213.75;;;20.44
74750;BMP280;63269;53.330;-6.288;2023-04-24T12:14:32;101210.31;;;20.43
74750;BMP280;63269;53.330;-6.288;2023-04-24T12:16:58;101210.44;;;20.40
74750;BMP280;63269;53.330;-6.288;2023-04-24T12:19:23;101219.50;;;20.42
74750;BMP280;63269;53.330;-6.288;2023-04-24T12:22:02;101224.50;;;20.40
74750;BMP280;63269;53.330;-6.288;2023-04-24T12:24:29;101230.16;;;20.42
74750;BMP280;63269;53.330;-6.288;2023-04-24T12:26:56;101236.28;;;20.39
74750;BMP280;63269;53.330;-6.288;2023-04-24T12:29:22;101226.41;;;20.40
74750;BMP280;63269;53.330;-6.288;2023-04-24T12:31:48;101232.47;;;20.40
74750;BMP280;63269;53.330;-6.288;2023-04-24T12:34:20;101235.47;;;20.42
74750;BMP280;63269;53.330;-6.288;2023-04-24T12:36:46;101237.06;;;20.40
74750;BMP280;63269;53.330;-6.288;2023-04-24T12:39:18;101237.06;;;20.40
74750;BMP280;63269;53.330;-6.288;2023-04-24T12:41:57;101242.41;;;20.40
74750;BMP280;63269;53.330;-6.288;2023-04-24T12:44:30;101254.53;;;20.41
74750;BMP280;63269;53.330;-6.288;2023-04-24T12:46:56;101256.88;;;20.38
74750;BMP280;63269;53.330;-6.288;2023-04-24T12:49:22;101256.88;;;20.38
74750;BMP280;63269;53.330;-6.288;2023-04-24T12:51:47;101253.47;;;20.38
74750;BMP280;63269;53.330;-6.288;2023-04-24T12:54:13;101264.13;;;20.38
74750;BMP280;63269;53.330;-6.288;2023-04-24T12:56:38;101255.38;;;20.37
74750;BMP280;63269;53.330;-6.288;2023-04-24T12:59:04;101260.69;;;20.37
74750;BMP280;63269;53.330;-6.288;2023-04-24T13:01:30;101260.69;;;20.37
74750;BMP280;63269;53.330;-6.288;2023-04-24T13:03:56;101258.03;;;20.37
74750;BMP280;63269;53.330;-6.288;2023-04-24T13:06:21;101258.44;;;20.36
74750;BMP280;63269;53.330;-6.288;2023-04-24T13:08:46;101261.09;;;20.36
74750;BMP280;63269;53.330;-6.288;2023-04-24T13:11:13;101274.78;;;20.38
74750;BMP280;63269;53.330;-6.288;2023-04-24T13:13:39;101281.25;;;20.37
74750;BMP280;63269;53.330;-6.288;2023-04-24T13:16:05;101281.25;;;20.37
74750;BMP280;63269;53.330;-6.288;2023-04-24T13:18:30;101266.41;;;20.36
74750;BMP280;63269;53.330;-6.288;2023-04-24T13:20:56;101266.41;;;20.36
74750;BMP280;63269;53.330;-6.288;2023-04-24T13:23:22;101271.03;;;20.35
74750;BMP280;63269;53.330;-6.288;2023-04-24T13:25:48;101269.88;;;20.36
74750;BMP280;63269;53.330;-6.288;2023-04-24T13:28:13;101269.88;;;20.36
74750;BMP280;63269;53.330;-6.288;2023-04-24T13:30:39;101270.28;;;20.35
74750;BMP280;63269;53.330;-6.288;2023-04-24T13:33:04;101284.38;;;20.35
74750;BMP280;63269;53.330;-6.288;2023-04-24T13:35:30;101284.38;;;20.35
74750;BMP280;63269;53.330;-6.288;2023-04-24T13:37:56;101282.09;;;20.34
74750;BMP280;63269;53.330;-6.288;2023-04-24T13:40:21;101290.84;;;20.34
74750;BMP280;63269;53.330;-6.288;2023-04-24T13:42:46;101290.84;;;20.34
74750;BMP280;63269;53.330;-6.288;2023-04-24T13:45:12;101295.44;;;20.34
74750;BMP280;63269;53.330;-6.288;2023-04-24T13:47:37;101295.44;;;20.34
74750;BMP280;63269;53.330;-6.288;2023-04-24T13:50:07;101288.59;;;20.33
74750;BMP280;63269;53.330;-6.288;2023-04-24T13:52:33;101293.16;;;20.32
74750;BMP280;63269;53.330;-6.288;2023-04-24T13:54:58;101294.34;;;20.31